THY4332 HECA-LTFJ
Flight info
| Callsign | THY4332 |
|---|---|
| Flight time | 1h 55m |
| Altitude | 40000 |
| Route | CVO A16 DEGDI DCT SENTO Q777 IMPIP DCT AZMEY DCT RASDA M855 TOMBI UM855 EKSEN UL610 ETAMP |
| Aircraft | A332/H-SDE3GHIJ2J3J5M1RVWXY/LB2D1 |
Departure
| Time | 2026-05-06 12:23 |
|---|---|
| Airport | Cairo International Airport (HECA) |
Arrival
| Time | 2026-05-06 14:18 |
|---|---|
| Airport | Istanbul Sabiha Gökçen International Airport (LTFJ) |
| Time | Latitude | Longitude | Altitude | Speed | Heading |
|---|---|---|---|---|---|
| 2026-05-06 11:40 | 30.11031 | 31.40442 | 378 ft | 0 kts | 349° |
| 2026-05-06 12:11 | 30.11008 | 31.40447 | 378 ft | 4 kts | 347° |
| 2026-05-06 12:11 | 30.10983 | 31.40451 | 378 ft | 4 kts | 21° |
| 2026-05-06 12:11 | 30.10977 | 31.40448 | 378 ft | 4 kts | 108° |
| 2026-05-06 12:11 | 30.10985 | 31.40418 | 378 ft | 4 kts | 106° |
| 2026-05-06 12:12 | 30.10988 | 31.40405 | 378 ft | 1 kts | 107° |
| 2026-05-06 12:13 | 30.10992 | 31.40393 | 378 ft | 3 kts | 84° |
| 2026-05-06 12:14 | 30.10990 | 31.40381 | 378 ft | 2 kts | 81° |
| 2026-05-06 12:14 | 30.10987 | 31.40362 | 378 ft | 2 kts | 67° |
| 2026-05-06 12:14 | 30.10981 | 31.40345 | 378 ft | 2 kts | 67° |
| 2026-05-06 12:14 | 30.10974 | 31.40328 | 378 ft | 2 kts | 67° |
| 2026-05-06 12:15 | 30.10970 | 31.40317 | 378 ft | 0 kts | 69° |
| 2026-05-06 12:15 | 30.10966 | 31.40303 | 378 ft | 0 kts | 101° |
| 2026-05-06 12:17 | 30.10964 | 31.40312 | 378 ft | 2 kts | 104° |
| 2026-05-06 12:17 | 30.10958 | 31.40340 | 378 ft | 5 kts | 104° |
| 2026-05-06 12:17 | 30.10945 | 31.40384 | 378 ft | 7 kts | 110° |
| 2026-05-06 12:18 | 30.10922 | 31.40436 | 378 ft | 8 kts | 128° |
| 2026-05-06 12:18 | 30.10871 | 31.40446 | 378 ft | 8 kts | 198° |
| 2026-05-06 12:18 | 30.10825 | 31.40404 | 378 ft | 10 kts | 225° |
| 2026-05-06 12:18 | 30.10770 | 31.40333 | 378 ft | 16 kts | 228° |
| 2026-05-06 12:19 | 30.10727 | 31.40291 | 378 ft | 1 kts | 178° |
| 2026-05-06 12:19 | 30.10708 | 31.40303 | 378 ft | 7 kts | 151° |
| 2026-05-06 12:19 | 30.10646 | 31.40310 | 378 ft | 11 kts | 199° |
| 2026-05-06 12:19 | 30.10573 | 31.40232 | 378 ft | 19 kts | 230° |
| 2026-05-06 12:20 | 30.10469 | 31.40093 | 378 ft | 26 kts | 229° |
| 2026-05-06 12:20 | 30.10347 | 31.39934 | 378 ft | 19 kts | 228° |
| 2026-05-06 12:20 | 30.10272 | 31.39875 | 378 ft | 2 kts | 167° |
| 2026-05-06 12:20 | 30.10249 | 31.39892 | 378 ft | 6 kts | 146° |
| 2026-05-06 12:21 | 30.10219 | 31.39919 | 378 ft | 0 kts | 139° |
| 2026-05-06 12:21 | 30.10206 | 31.39933 | 378 ft | 6 kts | 138° |
| 2026-05-06 12:22 | 30.10152 | 31.39995 | 376 ft | 16 kts | 122° |
| 2026-05-06 12:22 | 30.10185 | 31.40114 | 377 ft | 31 kts | 52° |
| 2026-05-06 12:22 | 30.10519 | 31.40560 | 381 ft | 114 kts | 49° |
| 2026-05-06 12:22 | 30.11195 | 31.41457 | 551 ft | 173 kts | 47° |
| 2026-05-06 12:23 | 30.12067 | 31.42630 | 1058 ft | 211 kts | 47° |
| 2026-05-06 12:23 | 30.13268 | 31.43670 | 2005 ft | 228 kts | 21° |
| 2026-05-06 12:23 | 30.14856 | 31.43833 | 3124 ft | 232 kts | 350° |
| 2026-05-06 12:23 | 30.16320 | 31.43122 | 3906 ft | 235 kts | 329° |
| 2026-05-06 12:24 | 30.17715 | 31.42011 | 4436 ft | 252 kts | 325° |
| 2026-05-06 12:24 | 30.19152 | 31.40792 | 5264 ft | 259 kts | 324° |
| 2026-05-06 12:24 | 30.20622 | 31.39553 | 6200 ft | 264 kts | 324° |
| 2026-05-06 12:24 | 30.22108 | 31.38301 | 7199 ft | 264 kts | 324° |
| 2026-05-06 12:25 | 30.23608 | 31.37056 | 8132 ft | 268 kts | 324° |
| 2026-05-06 12:25 | 30.25145 | 31.35807 | 9096 ft | 272 kts | 324° |
| 2026-05-06 12:25 | 30.26729 | 31.34562 | 10046 ft | 278 kts | 328° |
| 2026-05-06 12:25 | 30.28544 | 31.33632 | 10582 ft | 297 kts | 340° |
| 2026-05-06 12:26 | 30.30597 | 31.32993 | 10984 ft | 319 kts | 346° |
| 2026-05-06 12:26 | 30.32847 | 31.32520 | 11667 ft | 329 kts | 349° |
| 2026-05-06 12:26 | 30.35104 | 31.32160 | 12440 ft | 335 kts | 350° |
| 2026-05-06 12:26 | 30.37434 | 31.31831 | 13253 ft | 340 kts | 350° |
| 2026-05-06 12:27 | 30.39798 | 31.31501 | 14049 ft | 344 kts | 350° |
| 2026-05-06 12:27 | 30.42190 | 31.31151 | 14760 ft | 348 kts | 349° |
| 2026-05-06 12:27 | 30.44606 | 31.30781 | 15453 ft | 352 kts | 349° |
| 2026-05-06 12:27 | 30.47047 | 31.30393 | 16150 ft | 356 kts | 348° |
| 2026-05-06 12:28 | 30.49523 | 31.29991 | 16831 ft | 361 kts | 348° |
| 2026-05-06 12:28 | 30.52024 | 31.29579 | 17515 ft | 365 kts | 348° |
| 2026-05-06 12:28 | 30.54551 | 31.29162 | 18176 ft | 369 kts | 348° |
| 2026-05-06 12:28 | 30.57110 | 31.28739 | 18770 ft | 373 kts | 348° |
| 2026-05-06 12:29 | 30.59693 | 31.28313 | 19335 ft | 377 kts | 348° |
| 2026-05-06 12:29 | 30.62300 | 31.27883 | 19900 ft | 381 kts | 348° |
| 2026-05-06 12:29 | 30.64939 | 31.27448 | 20459 ft | 384 kts | 348° |
| 2026-05-06 12:29 | 30.67598 | 31.27011 | 21053 ft | 387 kts | 348° |
| 2026-05-06 12:30 | 30.70244 | 31.26575 | 21595 ft | 391 kts | 348° |
| 2026-05-06 12:30 | 30.72952 | 31.26128 | 22131 ft | 395 kts | 348° |
| 2026-05-06 12:30 | 30.75689 | 31.25677 | 22661 ft | 399 kts | 348° |
| 2026-05-06 12:30 | 30.78454 | 31.25220 | 23202 ft | 403 kts | 348° |
| 2026-05-06 12:31 | 30.81238 | 31.24760 | 23692 ft | 406 kts | 348° |
| 2026-05-06 12:31 | 30.84055 | 31.24295 | 24161 ft | 409 kts | 347° |
| 2026-05-06 12:31 | 30.86876 | 31.23830 | 24662 ft | 410 kts | 347° |
| 2026-05-06 12:31 | 30.89704 | 31.23363 | 25149 ft | 411 kts | 347° |
| 2026-05-06 12:32 | 30.92540 | 31.22894 | 25631 ft | 413 kts | 347° |
| 2026-05-06 12:32 | 30.95392 | 31.22422 | 26086 ft | 415 kts | 347° |
| 2026-05-06 12:32 | 30.98258 | 31.21947 | 26530 ft | 417 kts | 347° |
| 2026-05-06 12:32 | 31.01134 | 31.21469 | 26954 ft | 419 kts | 347° |
| 2026-05-06 12:33 | 31.04028 | 31.20988 | 27378 ft | 421 kts | 347° |
| 2026-05-06 12:33 | 31.06933 | 31.20505 | 27810 ft | 423 kts | 347° |
| 2026-05-06 12:33 | 31.09855 | 31.20020 | 28230 ft | 425 kts | 347° |
| 2026-05-06 12:33 | 31.12753 | 31.19538 | 28651 ft | 427 kts | 347° |
| 2026-05-06 12:34 | 31.15740 | 31.19041 | 29086 ft | 429 kts | 346° |
| 2026-05-06 12:34 | 31.18661 | 31.18554 | 29480 ft | 431 kts | 347° |
| 2026-05-06 12:34 | 31.21636 | 31.18059 | 29875 ft | 433 kts | 347° |
| 2026-05-06 12:34 | 31.24670 | 31.17829 | 30233 ft | 444 kts | 360° |
| 2026-05-06 12:35 | 31.27717 | 31.18644 | 30543 ft | 458 kts | 16° |
| 2026-05-06 12:35 | 31.30620 | 31.20266 | 30852 ft | 466 kts | 24° |
| 2026-05-06 12:35 | 31.33417 | 31.22220 | 31154 ft | 470 kts | 27° |
| 2026-05-06 12:35 | 31.36200 | 31.24251 | 31449 ft | 473 kts | 27° |
| 2026-05-06 12:36 | 31.39031 | 31.26252 | 31738 ft | 475 kts | 25° |
| 2026-05-06 12:36 | 31.41897 | 31.28170 | 32053 ft | 476 kts | 24° |
| 2026-05-06 12:36 | 31.44810 | 31.30026 | 32415 ft | 475 kts | 22° |
| 2026-05-06 12:36 | 31.47732 | 31.31824 | 32859 ft | 473 kts | 22° |
| 2026-05-06 12:37 | 31.50653 | 31.33588 | 33289 ft | 471 kts | 21° |
| 2026-05-06 12:37 | 31.53538 | 31.35315 | 33675 ft | 470 kts | 21° |
| 2026-05-06 12:37 | 31.56549 | 31.36679 | 34040 ft | 458 kts | 6° |
| 2026-05-06 12:37 | 31.59667 | 31.37016 | 34404 ft | 444 kts | 352° |
| 2026-05-06 12:38 | 31.62714 | 31.36689 | 34782 ft | 436 kts | 346° |
| 2026-05-06 12:38 | 31.65702 | 31.36123 | 35109 ft | 434 kts | 344° |
| 2026-05-06 12:38 | 31.68679 | 31.35523 | 35415 ft | 434 kts | 344° |
| 2026-05-06 12:38 | 31.71663 | 31.34984 | 35714 ft | 435 kts | 346° |
| 2026-05-06 12:39 | 31.74667 | 31.34526 | 36007 ft | 435 kts | 347° |
| 2026-05-06 12:39 | 31.77679 | 31.34138 | 36316 ft | 436 kts | 348° |
| 2026-05-06 12:39 | 31.80695 | 31.33798 | 36601 ft | 436 kts | 348° |
| 2026-05-06 12:39 | 31.83717 | 31.33484 | 36884 ft | 436 kts | 348° |
| 2026-05-06 12:40 | 31.86701 | 31.33183 | 37163 ft | 435 kts | 348° |
| 2026-05-06 12:40 | 31.89718 | 31.32879 | 37441 ft | 435 kts | 348° |
| 2026-05-06 12:40 | 31.92733 | 31.32570 | 37724 ft | 434 kts | 348° |
| 2026-05-06 12:40 | 31.95739 | 31.32258 | 38003 ft | 434 kts | 348° |
| 2026-05-06 12:41 | 31.98747 | 31.31942 | 38271 ft | 433 kts | 348° |
| 2026-05-06 12:41 | 32.01757 | 31.31623 | 38546 ft | 433 kts | 348° |
| 2026-05-06 12:41 | 32.04754 | 31.31305 | 38808 ft | 433 kts | 348° |
| 2026-05-06 12:41 | 32.07751 | 31.30986 | 39024 ft | 432 kts | 348° |
| 2026-05-06 12:42 | 32.10747 | 31.30666 | 39231 ft | 432 kts | 348° |
| 2026-05-06 12:42 | 32.13743 | 31.30345 | 39399 ft | 432 kts | 348° |
| 2026-05-06 12:42 | 32.16743 | 31.30023 | 39560 ft | 433 kts | 348° |
| 2026-05-06 12:42 | 32.19745 | 31.29700 | 39727 ft | 433 kts | 348° |
| 2026-05-06 12:43 | 32.22713 | 31.29381 | 39890 ft | 433 kts | 348° |
| 2026-05-06 12:43 | 32.25757 | 31.29053 | 40046 ft | 434 kts | 348° |
| 2026-05-06 12:43 | 32.31787 | 31.28398 | 40103 ft | 442 kts | 348° |
| 2026-05-06 12:44 | 32.37958 | 31.27730 | 40085 ft | 445 kts | 348° |
| 2026-05-06 12:44 | 32.44117 | 31.27070 | 40089 ft | 444 kts | 348° |
| 2026-05-06 12:45 | 32.50277 | 31.26407 | 40086 ft | 444 kts | 348° |
| 2026-05-06 12:46 | 32.59380 | 31.24930 | 40086 ft | 431 kts | 335° |
| 2026-05-06 12:46 | 32.64735 | 31.22067 | 40083 ft | 423 kts | 327° |
| 2026-05-06 12:47 | 32.69916 | 31.18758 | 40083 ft | 423 kts | 326° |
| 2026-05-06 12:47 | 32.75141 | 31.15519 | 40083 ft | 424 kts | 327° |
| 2026-05-06 12:48 | 32.80422 | 31.12381 | 40084 ft | 424 kts | 328° |
| 2026-05-06 12:48 | 32.85688 | 31.09300 | 40091 ft | 424 kts | 328° |
| 2026-05-06 12:49 | 32.90980 | 31.06206 | 40082 ft | 423 kts | 328° |
| 2026-05-06 12:49 | 32.96266 | 31.03103 | 40081 ft | 423 kts | 328° |
| 2026-05-06 12:50 | 33.01551 | 30.99993 | 40089 ft | 423 kts | 328° |
| 2026-05-06 12:50 | 33.06829 | 30.96883 | 40074 ft | 423 kts | 328° |
| 2026-05-06 12:51 | 33.12408 | 30.94533 | 40075 ft | 436 kts | 346° |
| 2026-05-06 12:51 | 33.18488 | 30.94186 | 40072 ft | 444 kts | 354° |
| 2026-05-06 12:52 | 33.24672 | 30.94262 | 40075 ft | 445 kts | 353° |
| 2026-05-06 12:52 | 33.30859 | 30.94206 | 40076 ft | 443 kts | 352° |
| 2026-05-06 12:53 | 33.37027 | 30.94013 | 40084 ft | 443 kts | 352° |
| 2026-05-06 12:53 | 33.43202 | 30.93771 | 40074 ft | 444 kts | 351° |
| 2026-05-06 12:54 | 33.49391 | 30.93528 | 40076 ft | 444 kts | 352° |
| 2026-05-06 12:54 | 33.55525 | 30.93292 | 40075 ft | 444 kts | 352° |
| 2026-05-06 12:55 | 33.61701 | 30.93058 | 40074 ft | 444 kts | 352° |
| 2026-05-06 12:55 | 33.67890 | 30.92824 | 40071 ft | 445 kts | 352° |
| 2026-05-06 12:56 | 33.74075 | 30.92590 | 40074 ft | 445 kts | 352° |
| 2026-05-06 12:56 | 33.80269 | 30.92354 | 40085 ft | 445 kts | 352° |
| 2026-05-06 12:57 | 33.86459 | 30.92119 | 40076 ft | 445 kts | 352° |
| 2026-05-06 12:57 | 33.92607 | 30.91885 | 40074 ft | 445 kts | 352° |
| 2026-05-06 12:58 | 33.98790 | 30.91611 | 40064 ft | 444 kts | 351° |
| 2026-05-06 12:58 | 34.04980 | 30.91265 | 40073 ft | 444 kts | 351° |
| 2026-05-06 12:59 | 34.11141 | 30.90911 | 40069 ft | 442 kts | 351° |
| 2026-05-06 12:59 | 34.17293 | 30.90562 | 40068 ft | 442 kts | 351° |
| 2026-05-06 13:00 | 34.23442 | 30.90219 | 40066 ft | 442 kts | 351° |
| 2026-05-06 13:00 | 34.29566 | 30.89903 | 40067 ft | 443 kts | 352° |
| 2026-05-06 13:01 | 34.35722 | 30.89606 | 40066 ft | 443 kts | 352° |
| 2026-05-06 13:01 | 34.41878 | 30.89309 | 40063 ft | 443 kts | 352° |
| 2026-05-06 13:02 | 34.48035 | 30.89008 | 40075 ft | 443 kts | 352° |
| 2026-05-06 13:02 | 34.54199 | 30.88706 | 40061 ft | 442 kts | 352° |
| 2026-05-06 13:03 | 34.60349 | 30.88403 | 40061 ft | 442 kts | 352° |
| 2026-05-06 13:03 | 34.66469 | 30.88156 | 40062 ft | 443 kts | 353° |
| 2026-05-06 13:04 | 34.72636 | 30.87960 | 40064 ft | 443 kts | 353° |
| 2026-05-06 13:04 | 34.78788 | 30.87769 | 40061 ft | 441 kts | 353° |
| 2026-05-06 13:05 | 34.83891 | 30.87604 | 40059 ft | 441 kts | 353° |
| 2026-05-06 13:05 | 34.91032 | 30.87368 | 40058 ft | 441 kts | 353° |
| 2026-05-06 13:06 | 34.97169 | 30.87163 | 40059 ft | 441 kts | 353° |
| 2026-05-06 13:06 | 35.02304 | 30.86993 | 40056 ft | 440 kts | 353° |
| 2026-05-06 13:07 | 35.08387 | 30.86790 | 40058 ft | 440 kts | 353° |
| 2026-05-06 13:07 | 35.14483 | 30.86587 | 40095 ft | 439 kts | 356° |
| 2026-05-06 13:08 | 35.20642 | 30.86382 | 40057 ft | 443 kts | 353° |
| 2026-05-06 13:08 | 35.26787 | 30.86178 | 40058 ft | 440 kts | 353° |
| 2026-05-06 13:09 | 35.32905 | 30.85973 | 40057 ft | 439 kts | 353° |
| 2026-05-06 13:09 | 35.39013 | 30.85767 | 40064 ft | 439 kts | 353° |
| 2026-05-06 13:10 | 35.45130 | 30.85561 | 40053 ft | 439 kts | 353° |
| 2026-05-06 13:10 | 35.51240 | 30.85356 | 40056 ft | 439 kts | 353° |
| 2026-05-06 13:11 | 35.57347 | 30.85150 | 40052 ft | 439 kts | 353° |
| 2026-05-06 13:11 | 35.63451 | 30.84919 | 40055 ft | 438 kts | 353° |
| 2026-05-06 13:12 | 35.69498 | 30.84570 | 40052 ft | 437 kts | 352° |
| 2026-05-06 13:12 | 35.75574 | 30.84184 | 40053 ft | 437 kts | 352° |
| 2026-05-06 13:13 | 35.81656 | 30.83805 | 40054 ft | 437 kts | 352° |
| 2026-05-06 13:13 | 35.87732 | 30.83436 | 40050 ft | 438 kts | 352° |
| 2026-05-06 13:14 | 35.93823 | 30.83068 | 40052 ft | 438 kts | 352° |
| 2026-05-06 13:14 | 35.99904 | 30.82701 | 40047 ft | 438 kts | 352° |
| 2026-05-06 13:15 | 36.05994 | 30.82362 | 40050 ft | 438 kts | 353° |
| 2026-05-06 13:15 | 36.12096 | 30.82147 | 40053 ft | 439 kts | 354° |
| 2026-05-06 13:16 | 36.18169 | 30.81966 | 40050 ft | 439 kts | 354° |
| 2026-05-06 13:16 | 36.24284 | 30.81774 | 40080 ft | 439 kts | 354° |
| 2026-05-06 13:17 | 36.30387 | 30.81574 | 40054 ft | 438 kts | 353° |
| 2026-05-06 13:17 | 36.36470 | 30.81371 | 40056 ft | 437 kts | 353° |
| 2026-05-06 13:18 | 36.42548 | 30.81165 | 40053 ft | 437 kts | 353° |
| 2026-05-06 13:18 | 36.48631 | 30.80956 | 40053 ft | 437 kts | 353° |
| 2026-05-06 13:19 | 36.54713 | 30.80745 | 40052 ft | 437 kts | 353° |
| 2026-05-06 13:19 | 36.60788 | 30.80535 | 40052 ft | 437 kts | 353° |
| 2026-05-06 13:20 | 36.66873 | 30.80324 | 40067 ft | 437 kts | 353° |
| 2026-05-06 13:20 | 36.72950 | 30.80114 | 40049 ft | 436 kts | 353° |
| 2026-05-06 13:21 | 36.78988 | 30.79905 | 40049 ft | 436 kts | 353° |
| 2026-05-06 13:21 | 36.85064 | 30.79694 | 40048 ft | 437 kts | 353° |
| 2026-05-06 13:22 | 36.91136 | 30.79481 | 40049 ft | 437 kts | 353° |
| 2026-05-06 13:22 | 36.97191 | 30.78943 | 40050 ft | 435 kts | 349° |
| 2026-05-06 13:23 | 37.03213 | 30.78147 | 40048 ft | 435 kts | 349° |
| 2026-05-06 13:23 | 37.09231 | 30.77340 | 40053 ft | 435 kts | 349° |
| 2026-05-06 13:24 | 37.15260 | 30.76568 | 40058 ft | 436 kts | 349° |
| 2026-05-06 13:24 | 37.21300 | 30.75813 | 40063 ft | 437 kts | 349° |
| 2026-05-06 13:25 | 37.27356 | 30.75060 | 40065 ft | 437 kts | 349° |
| 2026-05-06 13:25 | 37.33407 | 30.74304 | 40066 ft | 437 kts | 350° |
| 2026-05-06 13:26 | 37.39436 | 30.73549 | 40076 ft | 437 kts | 350° |
| 2026-05-06 13:26 | 37.45483 | 30.72739 | 40081 ft | 437 kts | 349° |
| 2026-05-06 13:27 | 37.51529 | 30.71853 | 40076 ft | 437 kts | 349° |
| 2026-05-06 13:27 | 37.57580 | 30.70955 | 40075 ft | 438 kts | 349° |
| 2026-05-06 13:28 | 37.63655 | 30.70148 | 40082 ft | 439 kts | 350° |
| 2026-05-06 13:28 | 37.69702 | 30.69413 | 40085 ft | 439 kts | 350° |
| 2026-05-06 13:29 | 37.75790 | 30.68675 | 40097 ft | 439 kts | 351° |
| 2026-05-06 13:29 | 37.81879 | 30.67924 | 40096 ft | 440 kts | 350° |
| 2026-05-06 13:30 | 37.87975 | 30.67149 | 40096 ft | 439 kts | 348° |
| 2026-05-06 13:30 | 37.93746 | 30.64947 | 40101 ft | 431 kts | 334° |
| 2026-05-06 13:31 | 37.99171 | 30.61823 | 40094 ft | 431 kts | 332° |
| 2026-05-06 13:31 | 38.04604 | 30.58621 | 40092 ft | 431 kts | 333° |
| 2026-05-06 13:32 | 38.10081 | 30.55530 | 40092 ft | 431 kts | 334° |
| 2026-05-06 13:32 | 38.15590 | 30.52496 | 40089 ft | 431 kts | 334° |
| 2026-05-06 13:33 | 38.21100 | 30.49476 | 40097 ft | 431 kts | 334° |
| 2026-05-06 13:33 | 38.26581 | 30.46464 | 40088 ft | 431 kts | 334° |
| 2026-05-06 13:34 | 38.32093 | 30.43426 | 40088 ft | 431 kts | 334° |
| 2026-05-06 13:34 | 38.37560 | 30.40407 | 40086 ft | 431 kts | 334° |
| 2026-05-06 13:35 | 38.43067 | 30.37361 | 40083 ft | 431 kts | 334° |
| 2026-05-06 13:35 | 38.48568 | 30.34312 | 40083 ft | 432 kts | 334° |
| 2026-05-06 13:36 | 38.54084 | 30.31251 | 40080 ft | 432 kts | 334° |
| 2026-05-06 13:36 | 38.59606 | 30.28187 | 40080 ft | 433 kts | 334° |
| 2026-05-06 13:37 | 38.65139 | 30.25114 | 40073 ft | 433 kts | 334° |
| 2026-05-06 13:37 | 38.70623 | 30.22062 | 40073 ft | 433 kts | 334° |
| 2026-05-06 13:38 | 38.76147 | 30.18982 | 40072 ft | 433 kts | 334° |
| 2026-05-06 13:38 | 38.81666 | 30.15900 | 40068 ft | 433 kts | 334° |
| 2026-05-06 13:39 | 38.87087 | 30.12870 | 40039 ft | 413 kts | 334° |
| 2026-05-06 13:39 | 38.89682 | 30.11421 | 40064 ft | 401 kts | 334° |
| 2026-05-06 13:39 | 38.92255 | 30.09977 | 40077 ft | 406 kts | 334° |
| 2026-05-06 13:40 | 38.97503 | 30.07012 | 40066 ft | 417 kts | 334° |
| 2026-05-06 13:40 | 39.02870 | 30.03978 | 39890 ft | 420 kts | 334° |
| 2026-05-06 13:40 | 39.05535 | 30.02477 | 39720 ft | 413 kts | 334° |
| 2026-05-06 13:41 | 39.08103 | 30.01034 | 39568 ft | 404 kts | 334° |
| 2026-05-06 13:41 | 39.10652 | 29.99602 | 39442 ft | 395 kts | 334° |
| 2026-05-06 13:41 | 39.13143 | 29.98201 | 39337 ft | 386 kts | 334° |
| 2026-05-06 13:42 | 39.17967 | 29.95481 | 38905 ft | 375 kts | 334° |
| 2026-05-06 13:42 | 39.20358 | 29.94127 | 38357 ft | 377 kts | 334° |
| 2026-05-06 13:42 | 39.22790 | 29.92746 | 37496 ft | 386 kts | 334° |
| 2026-05-06 13:42 | 39.25272 | 29.91336 | 36617 ft | 395 kts | 334° |
| 2026-05-06 13:43 | 39.27810 | 29.89895 | 35737 ft | 403 kts | 334° |
| 2026-05-06 13:43 | 39.30404 | 29.88423 | 34844 ft | 411 kts | 335° |
| 2026-05-06 13:43 | 39.33061 | 29.86943 | 33908 ft | 419 kts | 337° |
| 2026-05-06 13:43 | 39.35865 | 29.85759 | 32807 ft | 429 kts | 344° |
| 2026-05-06 13:44 | 39.38820 | 29.85102 | 32012 ft | 433 kts | 352° |
| 2026-05-06 13:44 | 39.41821 | 29.85068 | 31519 ft | 431 kts | 1° |
| 2026-05-06 13:44 | 39.44787 | 29.85550 | 31055 ft | 427 kts | 6° |
| 2026-05-06 13:44 | 39.47696 | 29.86183 | 30626 ft | 421 kts | 6° |
| 2026-05-06 13:45 | 39.50563 | 29.86837 | 30228 ft | 415 kts | 7° |
| 2026-05-06 13:45 | 39.56156 | 29.88118 | 29375 ft | 402 kts | 7° |
| 2026-05-06 13:45 | 39.58887 | 29.88743 | 28995 ft | 395 kts | 7° |
| 2026-05-06 13:46 | 39.61570 | 29.89356 | 28644 ft | 388 kts | 7° |
| 2026-05-06 13:46 | 39.64172 | 29.89950 | 28329 ft | 381 kts | 7° |
| 2026-05-06 13:46 | 39.66764 | 29.90543 | 28051 ft | 373 kts | 7° |
| 2026-05-06 13:46 | 39.69291 | 29.91122 | 27783 ft | 362 kts | 7° |
| 2026-05-06 13:47 | 39.71707 | 29.91678 | 27593 ft | 341 kts | 7° |
| 2026-05-06 13:47 | 39.74001 | 29.92205 | 27455 ft | 329 kts | 7° |
| 2026-05-06 13:47 | 39.76222 | 29.92713 | 27352 ft | 320 kts | 7° |
| 2026-05-06 13:47 | 39.78383 | 29.93208 | 27270 ft | 310 kts | 7° |
| 2026-05-06 13:48 | 39.80475 | 29.93687 | 27206 ft | 300 kts | 6° |
| 2026-05-06 13:48 | 39.82500 | 29.94152 | 27154 ft | 290 kts | 6° |
| 2026-05-06 13:48 | 39.84471 | 29.94604 | 26856 ft | 289 kts | 6° |
| 2026-05-06 13:48 | 39.86490 | 29.95062 | 26203 ft | 300 kts | 6° |
| 2026-05-06 13:49 | 39.88561 | 29.95535 | 25641 ft | 303 kts | 7° |
| 2026-05-06 13:49 | 39.90658 | 29.96016 | 25115 ft | 309 kts | 7° |
| 2026-05-06 13:49 | 39.92792 | 29.96505 | 24447 ft | 320 kts | 7° |
| 2026-05-06 13:49 | 39.95029 | 29.97019 | 23739 ft | 332 kts | 7° |
| 2026-05-06 13:50 | 39.97319 | 29.97547 | 23035 ft | 334 kts | 7° |
| 2026-05-06 13:50 | 39.99583 | 29.98073 | 22455 ft | 326 kts | 7° |
| 2026-05-06 13:50 | 40.01769 | 29.98581 | 21904 ft | 311 kts | 7° |
| 2026-05-06 13:50 | 40.03849 | 29.99065 | 21433 ft | 298 kts | 7° |
| 2026-05-06 13:51 | 40.05865 | 29.99531 | 21041 ft | 291 kts | 7° |
| 2026-05-06 13:51 | 40.07837 | 29.99987 | 20680 ft | 284 kts | 7° |
| 2026-05-06 13:51 | 40.09760 | 30.00432 | 20325 ft | 278 kts | 7° |
| 2026-05-06 13:51 | 40.11643 | 30.00868 | 20011 ft | 271 kts | 7° |
| 2026-05-06 13:52 | 40.12865 | 30.01150 | 19811 ft | 267 kts | 7° |
| 2026-05-06 13:52 | 40.14676 | 30.01570 | 19511 ft | 261 kts | 7° |
| 2026-05-06 13:52 | 40.16470 | 30.01984 | 19089 ft | 265 kts | 8° |
| 2026-05-06 13:52 | 40.18932 | 30.02552 | 18417 ft | 277 kts | 8° |
| 2026-05-06 13:53 | 40.20858 | 30.02998 | 17796 ft | 286 kts | 8° |
| 2026-05-06 13:53 | 40.22845 | 30.03458 | 17159 ft | 294 kts | 8° |
| 2026-05-06 13:53 | 40.24871 | 30.03930 | 16698 ft | 296 kts | 8° |
| 2026-05-06 13:53 | 40.26238 | 30.04248 | 16441 ft | 295 kts | 8° |
| 2026-05-06 13:54 | 40.28262 | 30.04720 | 16061 ft | 294 kts | 8° |
| 2026-05-06 13:54 | 40.30248 | 30.05183 | 15689 ft | 293 kts | 8° |
| 2026-05-06 13:54 | 40.32250 | 30.05650 | 15321 ft | 291 kts | 8° |
| 2026-05-06 13:54 | 40.34243 | 30.06114 | 14951 ft | 289 kts | 8° |
| 2026-05-06 13:55 | 40.36217 | 30.06575 | 14594 ft | 288 kts | 8° |
| 2026-05-06 13:55 | 40.38186 | 30.07035 | 14230 ft | 286 kts | 8° |
| 2026-05-06 13:55 | 40.40148 | 30.07493 | 13880 ft | 285 kts | 8° |
| 2026-05-06 13:55 | 40.42073 | 30.07943 | 13492 ft | 284 kts | 8° |
| 2026-05-06 13:56 | 40.44050 | 30.08404 | 13092 ft | 293 kts | 8° |
| 2026-05-06 13:56 | 40.46056 | 30.08873 | 12696 ft | 293 kts | 8° |
| 2026-05-06 13:56 | 40.48055 | 30.09341 | 12311 ft | 291 kts | 8° |
| 2026-05-06 13:56 | 40.50044 | 30.09807 | 11935 ft | 289 kts | 8° |
| 2026-05-06 13:57 | 40.52026 | 30.10271 | 11628 ft | 288 kts | 8° |
| 2026-05-06 13:57 | 40.54007 | 30.10735 | 11377 ft | 288 kts | 8° |
| 2026-05-06 13:57 | 40.55979 | 30.11197 | 11132 ft | 287 kts | 8° |
| 2026-05-06 13:57 | 40.57947 | 30.11659 | 10892 ft | 289 kts | 8° |
| 2026-05-06 13:58 | 40.59908 | 30.12119 | 10653 ft | 290 kts | 8° |
| 2026-05-06 13:58 | 40.61889 | 30.12586 | 10406 ft | 288 kts | 8° |
| 2026-05-06 13:58 | 40.63843 | 30.13047 | 10176 ft | 281 kts | 8° |
| 2026-05-06 13:58 | 40.65749 | 30.13498 | 9965 ft | 274 kts | 8° |
| 2026-05-06 13:59 | 40.67593 | 30.13936 | 9905 ft | 264 kts | 8° |
| 2026-05-06 13:59 | 40.69444 | 30.14370 | 9988 ft | 278 kts | 8° |
| 2026-05-06 13:59 | 40.71384 | 30.14823 | 9973 ft | 285 kts | 8° |
| 2026-05-06 13:59 | 40.73345 | 30.15284 | 9985 ft | 286 kts | 8° |
| 2026-05-06 14:00 | 40.75281 | 30.15741 | 9991 ft | 286 kts | 8° |
| 2026-05-06 14:00 | 40.77240 | 30.16202 | 9993 ft | 286 kts | 8° |
| 2026-05-06 14:00 | 40.79203 | 30.16666 | 9991 ft | 286 kts | 8° |
| 2026-05-06 14:00 | 40.81167 | 30.17132 | 9988 ft | 287 kts | 8° |
| 2026-05-06 14:01 | 40.83208 | 30.17613 | 9977 ft | 307 kts | 8° |
| 2026-05-06 14:01 | 40.85288 | 30.17943 | 9994 ft | 293 kts | 4° |
| 2026-05-06 14:01 | 40.87336 | 30.18151 | 9989 ft | 302 kts | 3° |
| 2026-05-06 14:01 | 40.89394 | 30.18344 | 9993 ft | 289 kts | 2° |
| 2026-05-06 14:02 | 40.91406 | 30.18532 | 9998 ft | 300 kts | 2° |
| 2026-05-06 14:02 | 40.93517 | 30.18729 | 9991 ft | 299 kts | 3° |
| 2026-05-06 14:02 | 40.95545 | 30.18923 | 10004 ft | 291 kts | 3° |
| 2026-05-06 14:02 | 40.97636 | 30.19123 | 9989 ft | 302 kts | 3° |
| 2026-05-06 14:03 | 40.99648 | 30.19319 | 10006 ft | 285 kts | 3° |
| 2026-05-06 14:03 | 41.01600 | 30.19508 | 10007 ft | 279 kts | 3° |
| 2026-05-06 14:03 | 41.03537 | 30.19694 | 10003 ft | 280 kts | 3° |
| 2026-05-06 14:03 | 41.05485 | 30.19883 | 10003 ft | 281 kts | 3° |
| 2026-05-06 14:04 | 41.07417 | 30.19916 | 9990 ft | 271 kts | 350° |
| 2026-05-06 14:04 | 41.09192 | 30.19357 | 10012 ft | 254 kts | 341° |
| 2026-05-06 14:04 | 41.10738 | 30.18396 | 10060 ft | 238 kts | 326° |
| 2026-05-06 14:04 | 41.11907 | 30.16937 | 9999 ft | 228 kts | 306° |
| 2026-05-06 14:05 | 41.12555 | 30.15109 | 9946 ft | 216 kts | 285° |
| 2026-05-06 14:05 | 41.12619 | 30.13179 | 9862 ft | 206 kts | 264° |
| 2026-05-06 14:05 | 41.12325 | 30.11370 | 9749 ft | 196 kts | 258° |
| 2026-05-06 14:05 | 41.11978 | 30.09664 | 9645 ft | 187 kts | 257° |
| 2026-05-06 14:06 | 41.11640 | 30.08019 | 9395 ft | 186 kts | 257° |
| 2026-05-06 14:06 | 41.11297 | 30.06320 | 8909 ft | 195 kts | 256° |
| 2026-05-06 14:06 | 41.10944 | 30.04556 | 8425 ft | 202 kts | 257° |
| 2026-05-06 14:06 | 41.10584 | 30.02738 | 7886 ft | 205 kts | 256° |
| 2026-05-06 14:07 | 41.10219 | 30.00897 | 7374 ft | 208 kts | 257° |
| 2026-05-06 14:07 | 41.09850 | 29.99033 | 6823 ft | 210 kts | 256° |
| 2026-05-06 14:07 | 41.09477 | 29.97155 | 6296 ft | 212 kts | 256° |
| 2026-05-06 14:07 | 41.09105 | 29.95273 | 5726 ft | 214 kts | 256° |
| 2026-05-06 14:08 | 41.08721 | 29.93338 | 5139 ft | 220 kts | 256° |
| 2026-05-06 14:08 | 41.08331 | 29.91371 | 4678 ft | 219 kts | 256° |
| 2026-05-06 14:08 | 41.07946 | 29.89431 | 4296 ft | 215 kts | 256° |
| 2026-05-06 14:08 | 41.07569 | 29.87535 | 3929 ft | 211 kts | 256° |
| 2026-05-06 14:09 | 41.07198 | 29.85668 | 3596 ft | 206 kts | 256° |
| 2026-05-06 14:09 | 41.06846 | 29.83905 | 3503 ft | 188 kts | 256° |
| 2026-05-06 14:09 | 41.06528 | 29.82315 | 3504 ft | 170 kts | 257° |
| 2026-05-06 14:09 | 41.06240 | 29.80876 | 3500 ft | 154 kts | 256° |
| 2026-05-06 14:10 | 41.05975 | 29.79548 | 3498 ft | 148 kts | 256° |
| 2026-05-06 14:10 | 41.05714 | 29.78238 | 3503 ft | 147 kts | 256° |
| 2026-05-06 14:10 | 41.05440 | 29.76862 | 3499 ft | 162 kts | 256° |
| 2026-05-06 14:10 | 41.05146 | 29.75382 | 3498 ft | 169 kts | 256° |
| 2026-05-06 14:11 | 41.04845 | 29.73878 | 3492 ft | 169 kts | 256° |
| 2026-05-06 14:11 | 41.04541 | 29.72356 | 3496 ft | 172 kts | 256° |
| 2026-05-06 14:11 | 41.04227 | 29.70790 | 3494 ft | 178 kts | 256° |
| 2026-05-06 14:11 | 41.03807 | 29.69234 | 3487 ft | 180 kts | 245° |
| 2026-05-06 14:12 | 41.03188 | 29.67740 | 3491 ft | 189 kts | 241° |
| 2026-05-06 14:12 | 41.02509 | 29.66237 | 3487 ft | 192 kts | 240° |
| 2026-05-06 14:12 | 41.01818 | 29.64722 | 3484 ft | 194 kts | 241° |
| 2026-05-06 14:12 | 41.01113 | 29.63175 | 3488 ft | 197 kts | 241° |
| 2026-05-06 14:13 | 41.00416 | 29.61643 | 3491 ft | 196 kts | 241° |
| 2026-05-06 14:13 | 40.99713 | 29.60090 | 3490 ft | 199 kts | 240° |
| 2026-05-06 14:13 | 40.98994 | 29.58503 | 3494 ft | 203 kts | 240° |
| 2026-05-06 14:13 | 40.98281 | 29.56890 | 3492 ft | 202 kts | 243° |
| 2026-05-06 14:14 | 40.97665 | 29.55298 | 3484 ft | 185 kts | 245° |
| 2026-05-06 14:14 | 40.97116 | 29.53805 | 3495 ft | 178 kts | 245° |
| 2026-05-06 14:14 | 40.96581 | 29.52333 | 3498 ft | 178 kts | 245° |
| 2026-05-06 14:14 | 40.96039 | 29.50857 | 3497 ft | 179 kts | 246° |
| 2026-05-06 14:15 | 40.95499 | 29.49374 | 3492 ft | 179 kts | 247° |
| 2026-05-06 14:15 | 40.94965 | 29.47904 | 3496 ft | 177 kts | 246° |
| 2026-05-06 14:15 | 40.94437 | 29.46463 | 3495 ft | 167 kts | 246° |
| 2026-05-06 14:15 | 40.93938 | 29.45105 | 3330 ft | 162 kts | 246° |
| 2026-05-06 14:16 | 40.93450 | 29.43788 | 3126 ft | 159 kts | 245° |
| 2026-05-06 14:16 | 40.92951 | 29.42460 | 2711 ft | 164 kts | 245° |
| 2026-05-06 14:16 | 40.92460 | 29.41086 | 2255 ft | 164 kts | 247° |
| 2026-05-06 14:16 | 40.91968 | 29.39726 | 1805 ft | 163 kts | 246° |
| 2026-05-06 14:17 | 40.91493 | 29.38389 | 1384 ft | 160 kts | 246° |
| 2026-05-06 14:17 | 40.91002 | 29.37082 | 994 ft | 157 kts | 242° |
| 2026-05-06 14:17 | 40.90527 | 29.35820 | 652 ft | 147 kts | 244° |
| 2026-05-06 14:17 | 40.90088 | 29.34624 | 451 ft | 144 kts | 243° |
| 2026-05-06 14:18 | 40.89655 | 29.33437 | 298 ft | 140 kts | 244° |
| 2026-05-06 14:18 | 40.89333 | 29.32563 | 309 ft | 65 kts | 245° |
| 2026-05-06 14:18 | 40.89229 | 29.32277 | 309 ft | 28 kts | 244° |
| 2026-05-06 14:18 | 40.89146 | 29.32002 | 307 ft | 35 kts | 255° |